Time;durP1;ratioP1;P1;durP2;ratioP2;P2;SDS_P1;SDS_P2;PMS_P1;PMS_P2;Temp;Humidity;BMP_temperature;BMP_pressure;BME280_temperature;BME280_humidity;BME280_pressure;Samples;Min_cycle;Max_cycle;Signal;HPM_P1;HPM_P2
2024/04/24 00:00:56;;;;;;;3.17;1.38;;;;;;;;;;5449579;26;20505;-35
2024/04/24 00:03:22;;;;;;;1.40;1.30;;;;;;;;;;5445433;26;20232;-34
2024/04/24 00:05:48;;;;;;;1.48;1.10;;;;;;;;;;5445181;26;20979;-35
2024/04/24 00:08:14;;;;;;;1.42;1.30;;;;;;;;;;5444515;26;20344;-34
2024/04/24 00:10:40;;;;;;;1.23;1.13;;;;;;;;;;5447310;26;20231;-34
2024/04/24 00:13:06;;;;;;;1.77;1.40;;;;;;;;;;5447176;26;20235;-35
2024/04/24 00:15:32;;;;;;;2.47;1.15;;;;;;;;;;5438014;26;20258;-35
2024/04/24 00:17:58;;;;;;;1.20;1.10;;;;;;;;;;5453349;26;20274;-35
2024/04/24 00:20:24;;;;;;;2.88;1.38;;;;;;;;;;5444671;26;20297;-35
2024/04/24 00:22:50;;;;;;;1.38;1.00;;;;;;;;;;5449320;26;20624;-35
2024/04/24 00:25:16;;;;;;;1.05;1.00;;;;;;;;;;5440510;26;20244;-35
2024/04/24 00:27:41;;;;;;;1.40;1.30;;;;;;;;;;5447303;26;20235;-35
2024/04/24 00:30:12;;;;;;;1.30;1.20;;;;;;;;;;5447926;26;20528;-35
2024/04/24 00:32:39;;;;;;;1.42;1.30;;;;;;;;;;5440799;26;20231;-35
2024/04/24 00:35:05;;;;;;;1.58;1.10;;;;;;;;;;5444534;26;20231;-35
2024/04/24 00:37:31;;;;;;;1.70;1.20;;;;;;;;;;5450033;26;20235;-35
2024/04/24 00:39:57;;;;;;;1.48;1.38;;;;;;;;;;5447573;26;20278;-35
2024/04/24 00:42:23;;;;;;;1.80;1.58;;;;;;;;;;5443281;26;20588;-35
2024/04/24 00:44:49;;;;;;;1.58;1.48;;;;;;;;;;5436624;26;20224;-35
2024/04/24 00:47:15;;;;;;;1.38;1.17;;;;;;;;;;5446460;26;20281;-34
2024/04/24 00:49:43;;;;;;;2.35;1.40;;;;;;;;;;5451277;26;20587;-35
2024/04/24 00:52:08;;;;;;;1.60;1.30;;;;;;;;;;5454284;26;20235;-37
2024/04/24 00:54:35;;;;;;;1.55;1.20;;;;;;;;;;5452995;26;20265;-35
2024/04/24 00:57:01;;;;;;;1.77;1.30;;;;;;;;;;5454412;26;20464;-35
2024/04/24 00:59:26;;;;;;;1.50;1.40;;;;;;;;;;5454965;26;20274;-35
2024/04/24 01:01:52;;;;;;;3.20;1.83;;;;;;;;;;5449732;26;20228;-34
2024/04/24 01:04:18;;;;;;;1.40;1.30;;;;;;;;;;5441643;26;20291;-34
2024/04/24 01:06:44;;;;;;;1.92;1.27;;;;;;;;;;5444483;26;20651;-35
2024/04/24 01:09:10;;;;;;;2.20;1.30;;;;;;;;;;5440776;26;20244;-35
2024/04/24 01:11:36;;;;;;;1.98;1.20;;;;;;;;;;5450790;26;20239;-36
2024/04/24 01:14:02;;;;;;;1.35;1.23;;;;;;;;;;5454810;26;20602;-36
2024/04/24 01:16:31;;;;;;;2.15;1.42;;;;;;;;;;5448439;26;20296;-36
2024/04/24 01:19:02;;;;;;;1.50;1.17;;;;;;;;;;5445010;26;20269;-36
2024/04/24 01:21:41;;;;;;;1.10;1.00;;;;;;;;;;5448110;26;20324;-36
2024/04/24 01:24:13;;;;;;;1.38;1.30;;;;;;;;;;5446136;26;20277;-35
2024/04/24 01:26:42;;;;;;;1.15;1.05;;;;;;;;;;5441025;26;20223;-35
2024/04/24 01:29:08;;;;;;;1.42;1.30;;;;;;;;;;5448896;26;20265;-35
2024/04/24 01:31:33;;;;;;;2.15;1.30;;;;;;;;;;5451840;26;20235;-36
2024/04/24 01:33:59;;;;;;;2.40;1.60;;;;;;;;;;5449047;26;20268;-36
2024/04/24 01:36:25;;;;;;;1.50;1.40;;;;;;;;;;5439581;26;20231;-35
2024/04/24 01:38:51;;;;;;;1.98;1.30;;;;;;;;;;5448791;26;20237;-36
2024/04/24 01:41:17;;;;;;;1.90;1.17;;;;;;;;;;5444363;26;20274;-36
2024/04/24 01:43:43;;;;;;;1.42;1.20;;;;;;;;;;5438181;26;20300;-36
2024/04/24 01:46:09;;;;;;;1.00;1.00;;;;;;;;;;5447979;26;20237;-36
2024/04/24 01:48:36;;;;;;;1.30;1.20;;;;;;;;;;5443671;26;20290;-36
2024/04/24 01:51:02;;;;;;;1.40;1.30;;;;;;;;;;5445749;26;20232;-36
2024/04/24 01:53:27;;;;;;;1.33;1.23;;;;;;;;;;5436671;26;20270;-36
2024/04/24 01:55:53;;;;;;;1.20;1.10;;;;;;;;;;5457006;26;20338;-36
2024/04/24 01:58:19;;;;;;;1.45;1.00;;;;;;;;;;5448385;26;20314;-36
2024/04/24 02:00:45;;;;;;;1.20;1.10;;;;;;;;;;5446238;26;20514;-36
2024/04/24 02:03:11;;;;;;;1.35;1.25;;;;;;;;;;5444973;26;20278;-36
2024/04/24 02:05:37;;;;;;;1.48;1.05;;;;;;;;;;5456246;26;20224;-36
2024/04/24 02:08:03;;;;;;;1.42;1.27;;;;;;;;;;5453238;26;20602;-36
2024/04/24 02:10:29;;;;;;;1.38;1.20;;;;;;;;;;5453393;26;20483;-35
2024/04/24 02:12:55;;;;;;;1.55;1.45;;;;;;;;;;5432406;26;20278;-36
2024/04/24 02:15:21;;;;;;;2.38;1.30;;;;;;;;;;5456007;26;20720;-35
2024/04/24 02:17:47;;;;;;;1.45;1.20;;;;;;;;;;5452306;26;20311;-35
2024/04/24 02:20:13;;;;;;;1.23;1.10;;;;;;;;;;5451510;26;20227;-36
2024/04/24 02:22:39;;;;;;;1.40;1.30;;;;;;;;;;5439772;26;20247;-35
2024/04/24 02:27:50;;;;;;;1.70;1.40;;;;;;;;;;5446263;26;20669;-36
2024/04/24 02:30:16;;;;;;;1.42;0.90;;;;;;;;;;5453364;26;20247;-36
2024/04/24 02:32:42;;;;;;;1.60;1.08;;;;;;;;;;5447523;26;20278;-36
2024/04/24 02:35:08;;;;;;;1.33;1.13;;;;;;;;;;5439947;26;20244;-36
2024/04/24 02:37:34;;;;;;;1.27;1.10;;;;;;;;;;5431359;26;20232;-36
2024/04/24 02:40:00;;;;;;;1.20;1.10;;;;;;;;;;5445113;26;20227;-36
2024/04/24 02:42:26;;;;;;;1.10;1.00;;;;;;;;;;5446240;26;20300;-36
2024/04/24 02:44:52;;;;;;;1.27;1.17;;;;;;;;;;5441446;26;20280;-36
2024/04/24 02:47:18;;;;;;;1.20;1.10;;;;;;;;;;5447620;26;20295;-36
2024/04/24 02:49:44;;;;;;;1.40;1.27;;;;;;;;;;5454278;26;20634;-36
2024/04/24 02:52:10;;;;;;;0.82;0.82;;;;;;;;;;5447206;26;20314;-36
2024/04/24 02:54:36;;;;;;;1.05;1.00;;;;;;;;;;5452113;26;20239;-36
2024/04/24 02:57:02;;;;;;;1.20;1.10;;;;;;;;;;5453942;26;20316;-36
2024/04/24 02:59:28;;;;;;;1.08;0.90;;;;;;;;;;5450224;26;20227;-36
2024/04/24 03:01:53;;;;;;;1.40;1.30;;;;;;;;;;5440829;26;20294;-36
2024/04/24 03:04:19;;;;;;;1.20;1.10;;;;;;;;;;5440208;26;20475;-36
2024/04/24 03:06:45;;;;;;;2.13;1.23;;;;;;;;;;5442997;26;20239;-36
2024/04/24 03:09:12;;;;;;;1.60;1.23;;;;;;;;;;5451407;26;20335;-36
2024/04/24 03:11:38;;;;;;;1.20;1.10;;;;;;;;;;5441252;26;20379;-36
2024/04/24 03:14:04;;;;;;;1.05;1.05;;;;;;;;;;5451451;26;20261;-36
2024/04/24 03:16:30;;;;;;;0.90;0.90;;;;;;;;;;5439647;26;20239;-36
2024/04/24 03:18:56;;;;;;;1.13;1.02;;;;;;;;;;5440284;26;20219;-36
2024/04/24 03:21:22;;;;;;;1.20;1.10;;;;;;;;;;5448456;26;20316;-36
2024/04/24 03:23:48;;;;;;;2.42;1.10;;;;;;;;;;5446114;26;20306;-36
2024/04/24 03:26:14;;;;;;;1.23;1.08;;;;;;;;;;5447378;26;20324;-36
2024/04/24 03:28:40;;;;;;;1.55;1.45;;;;;;;;;;5453263;26;20231;-35
2024/04/24 03:31:06;;;;;;;1.70;1.27;;;;;;;;;;5439139;26;20282;-42
2024/04/24 03:33:32;;;;;;;1.40;1.20;;;;;;;;;;5440762;26;20227;-34
2024/04/24 03:35:58;;;;;;;2.10;1.42;;;;;;;;;;5428806;26;20342;-34
2024/04/24 03:38:24;;;;;;;1.20;1.10;;;;;;;;;;5443505;26;20234;-37
2024/04/24 03:40:50;;;;;;;1.48;1.25;;;;;;;;;;5440406;26;20464;-35
2024/04/24 03:43:17;;;;;;;1.17;1.08;;;;;;;;;;5437566;26;20244;-40
2024/04/24 03:45:43;;;;;;;3.03;1.40;;;;;;;;;;5445950;26;20642;-41
2024/04/24 03:48:08;;;;;;;1.30;1.20;;;;;;;;;;5441856;26;20279;-34
2024/04/24 03:50:34;;;;;;;3.75;1.25;;;;;;;;;;5438702;26;20316;-38
2024/04/24 03:53:00;;;;;;;2.83;1.23;;;;;;;;;;5435821;26;20730;-36
2024/04/24 03:55:26;;;;;;;3.67;1.40;;;;;;;;;;5450874;26;20233;-35
2024/04/24 03:57:52;;;;;;;1.30;1.10;;;;;;;;;;5454295;26;20259;-41
2024/04/24 04:00:18;;;;;;;1.83;1.23;;;;;;;;;;5439469;26;20326;-41
2024/04/24 04:02:44;;;;;;;3.92;1.23;;;;;;;;;;5447593;26;20321;-41
2024/04/24 04:05:10;;;;;;;2.42;1.38;;;;;;;;;;5451125;26;20228;-41
2024/04/24 04:07:36;;;;;;;4.88;2.08;;;;;;;;;;5447656;26;20606;-41
2024/04/24 04:10:03;;;;;;;3.10;1.42;;;;;;;;;;5449510;26;20235;-41
2024/04/24 04:12:28;;;;;;;5.15;1.45;;;;;;;;;;5438873;26;20333;-41
2024/04/24 04:14:54;;;;;;;2.03;1.38;;;;;;;;;;5451892;26;20235;-41
2024/04/24 04:17:20;;;;;;;3.40;1.50;;;;;;;;;;5452539;26;20251;-41
2024/04/24 04:19:46;;;;;;;7.15;1.90;;;;;;;;;;5452932;26;20227;-36
2024/04/24 04:22:14;;;;;;;6.47;2.33;;;;;;;;;;5446587;26;20266;-39
2024/04/24 04:24:40;;;;;;;10.85;2.22;;;;;;;;;;5450250;26;20285;-37
2024/04/24 04:27:06;;;;;;;9.23;2.28;;;;;;;;;;5437066;26;20227;-41
2024/04/24 04:29:32;;;;;;;9.40;2.55;;;;;;;;;;5446854;26;20455;-39
2024/04/24 04:31:58;;;;;;;10.57;2.40;;;;;;;;;;5446272;26;20243;-38
2024/04/24 04:34:24;;;;;;;5.03;1.95;;;;;;;;;;5448129;26;20322;-33
2024/04/24 04:36:50;;;;;;;6.00;2.03;;;;;;;;;;5438190;26;20497;-39
2024/04/24 04:39:16;;;;;;;8.00;2.25;;;;;;;;;;5450301;26;20287;-39
2024/04/24 04:41:42;;;;;;;9.55;2.78;;;;;;;;;;5451474;26;20494;-39
2024/04/24 04:44:08;;;;;;;7.63;2.15;;;;;;;;;;5442990;26;20295;-34
2024/04/24 04:46:34;;;;;;;6.35;2.13;;;;;;;;;;5443007;26;20315;-41
2024/04/24 04:49:00;;;;;;;10.02;2.50;;;;;;;;;;5438632;26;20236;-38
2024/04/24 04:51:26;;;;;;;9.55;2.90;;;;;;;;;;5433139;26;20227;-45
2024/04/24 04:53:52;;;;;;;5.60;2.50;;;;;;;;;;5441450;26;20224;-37
2024/04/24 04:56:17;;;;;;;10.05;2.22;;;;;;;;;;5447722;26;20231;-45
2024/04/24 04:58:43;;;;;;;8.68;2.45;;;;;;;;;;5441735;26;20303;-39
2024/04/24 05:01:12;;;;;;;15.35;2.35;;;;;;;;;;5437253;26;20613;-39
2024/04/24 05:03:37;;;;;;;9.82;2.05;;;;;;;;;;5446492;26;20342;-40
2024/04/24 05:06:04;;;;;;;6.72;2.10;;;;;;;;;;5450068;26;20228;-39
2024/04/24 05:08:30;;;;;;;8.38;1.98;;;;;;;;;;5440423;26;20240;-39
2024/04/24 05:10:56;;;;;;;8.10;2.10;;;;;;;;;;5443200;26;20235;-39
2024/04/24 05:13:21;;;;;;;5.35;2.08;;;;;;;;;;5439034;26;20232;-39
2024/04/24 05:15:47;;;;;;;3.67;2.03;;;;;;;;;;5450683;26;20642;-40
2024/04/24 05:18:13;;;;;;;5.97;1.65;;;;;;;;;;5441804;26;20215;-40
2024/04/24 05:20:39;;;;;;;6.05;1.77;;;;;;;;;;5450751;26;20278;-37
2024/04/24 05:23:05;;;;;;;4.55;1.83;;;;;;;;;;5437616;26;20618;-37
2024/04/24 05:25:32;;;;;;;6.22;2.15;;;;;;;;;;5455422;26;20219;-37
2024/04/24 05:30:45;;;;;;;4.97;2.03;;;;;;;;;;5456695;26;20281;-37
2024/04/24 05:33:11;;;;;;;4.43;2.08;;;;;;;;;;5439692;26;20228;-37
2024/04/24 05:35:37;;;;;;;6.13;2.70;;;;;;;;;;5446367;26;20279;-37
2024/04/24 05:38:03;;;;;;;2.97;1.65;;;;;;;;;;5440592;26;20326;-37
2024/04/24 05:40:29;;;;;;;3.53;1.77;;;;;;;;;;5456250;26;20236;-37
2024/04/24 05:42:55;;;;;;;10.18;1.90;;;;;;;;;;5442161;26;20511;-37
2024/04/24 05:45:21;;;;;;;1.75;1.52;;;;;;;;;;5445338;26;20235;-37
2024/04/24 05:47:47;;;;;;;2.28;1.45;;;;;;;;;;5453971;26;20599;-37
2024/04/24 05:50:13;;;;;;;3.42;1.80;;;;;;;;;;5454098;26;20235;-37
2024/04/24 05:52:39;;;;;;;3.78;1.95;;;;;;;;;;5444599;26;20270;-37
2024/04/24 05:55:05;;;;;;;4.20;1.55;;;;;;;;;;5451469;26;20232;-37
2024/04/24 05:57:31;;;;;;;3.50;1.67;;;;;;;;;;5449074;26;20325;-37
2024/04/24 05:59:57;;;;;;;5.78;1.80;;;;;;;;;;5456413;26;20312;-37
2024/04/24 06:02:22;;;;;;;2.30;1.83;;;;;;;;;;5450466;26;20227;-36
2024/04/24 06:04:50;;;;;;;4.47;1.88;;;;;;;;;;5449985;26;20632;-38
2024/04/24 06:07:16;;;;;;;2.40;1.80;;;;;;;;;;5451509;26;20333;-39
2024/04/24 06:09:43;;;;;;;4.25;1.70;;;;;;;;;;5446366;26;20705;-40
2024/04/24 06:12:08;;;;;;;2.72;1.83;;;;;;;;;;5441145;26;20258;-40
2024/04/24 06:14:34;;;;;;;2.42;1.48;;;;;;;;;;5455552;26;20232;-40
2024/04/24 06:17:00;;;;;;;2.20;1.45;;;;;;;;;;5444482;26;20227;-39
2024/04/24 06:19:26;;;;;;;4.25;1.55;;;;;;;;;;5455854;26;20223;-39
2024/04/24 06:21:52;;;;;;;3.90;1.58;;;;;;;;;;5440964;26;20658;-37
2024/04/24 06:24:18;;;;;;;5.07;1.70;;;;;;;;;;5452561;26;20307;-38
2024/04/24 06:26:44;;;;;;;2.88;1.80;;;;;;;;;;5445716;26;20232;-38
2024/04/24 06:29:10;;;;;;;2.22;1.70;;;;;;;;;;5449650;26;20273;-38
2024/04/24 06:31:36;;;;;;;3.05;1.73;;;;;;;;;;5441127;26;20633;-38
2024/04/24 06:34:02;;;;;;;2.50;1.75;;;;;;;;;;5434198;26;20228;-37
2024/04/24 06:36:28;;;;;;;2.38;1.88;;;;;;;;;;5452742;26;20606;-37
2024/04/24 06:38:54;;;;;;;2.78;1.58;;;;;;;;;;5455709;26;20274;-37
2024/04/24 06:41:20;;;;;;;1.83;1.70;;;;;;;;;;5440958;26;20224;-37
2024/04/24 06:43:46;;;;;;;3.33;1.50;;;;;;;;;;5437051;26;20227;-38
2024/04/24 06:46:12;;;;;;;3.13;1.70;;;;;;;;;;5451711;26;20714;-38
2024/04/24 06:48:37;;;;;;;1.83;1.42;;;;;;;;;;5455125;26;20954;-38
2024/04/24 06:51:04;;;;;;;2.97;1.98;;;;;;;;;;5454911;26;20271;-38
2024/04/24 06:53:33;;;;;;;2.63;1.60;;;;;;;;;;5439659;26;20236;-38
2024/04/24 06:56:02;;;;;;;3.55;2.00;;;;;;;;;;5455786;26;20215;-38
2024/04/24 06:58:31;;;;;;;3.67;1.92;;;;;;;;;;5436747;26;20229;-38
2024/04/24 07:00:59;;;;;;;1.45;1.35;;;;;;;;;;5443145;26;20228;-38
2024/04/24 07:03:26;;;;;;;2.40;1.77;;;;;;;;;;5458677;26;20234;-38
2024/04/24 07:05:52;;;;;;;2.13;1.48;;;;;;;;;;5455789;26;20224;-38
2024/04/24 07:08:19;;;;;;;4.65;1.58;;;;;;;;;;5453910;26;20262;-38
2024/04/24 07:10:45;;;;;;;4.10;1.90;;;;;;;;;;5455475;26;20295;-38
2024/04/24 07:13:11;;;;;;;3.00;1.60;;;;;;;;;;5453624;26;20219;-38
2024/04/24 07:15:37;;;;;;;3.88;1.75;;;;;;;;;;5452203;26;20224;-37
2024/04/24 07:18:03;;;;;;;2.03;1.73;;;;;;;;;;5446527;26;20224;-38
2024/04/24 07:20:29;;;;;;;2.88;1.58;;;;;;;;;;5448620;26;20301;-38
2024/04/24 07:22:55;;;;;;;2.15;1.60;;;;;;;;;;5441808;26;20311;-38
2024/04/24 07:25:21;;;;;;;1.65;1.55;;;;;;;;;;5448440;26;20296;-37
2024/04/24 07:27:47;;;;;;;1.83;1.63;;;;;;;;;;5436700;26;20228;-37
2024/04/24 07:30:13;;;;;;;1.45;1.35;;;;;;;;;;5454530;26;20223;-37
2024/04/24 07:32:39;;;;;;;1.58;1.40;;;;;;;;;;5437297;26;20231;-38
2024/04/24 07:35:06;;;;;;;1.42;1.33;;;;;;;;;;5452977;26;20275;-38
2024/04/24 07:37:32;;;;;;;2.15;1.52;;;;;;;;;;5439118;26;20301;-37
2024/04/24 07:39:58;;;;;;;2.10;1.58;;;;;;;;;;5452995;26;20221;-38
2024/04/24 07:42:24;;;;;;;1.40;1.30;;;;;;;;;;5446123;26;20235;-38
2024/04/24 07:44:49;;;;;;;1.83;1.65;;;;;;;;;;5450855;26;20281;-37
2024/04/24 07:47:15;;;;;;;1.75;1.50;;;;;;;;;;5442282;26;20277;-38
2024/04/24 07:49:41;;;;;;;2.42;1.58;;;;;;;;;;5443115;26;20266;-38
2024/04/24 07:52:07;;;;;;;1.40;1.30;;;;;;;;;;5432563;26;20322;-37
2024/04/24 07:54:35;;;;;;;2.38;1.50;;;;;;;;;;5437331;26;20239;-38
2024/04/24 07:57:01;;;;;;;2.17;1.77;;;;;;;;;;5450540;26;20617;-37
2024/04/24 07:59:27;;;;;;;2.30;1.45;;;;;;;;;;5438527;26;20302;-37
2024/04/24 08:01:53;;;;;;;3.15;1.30;;;;;;;;;;5449750;26;20492;-37
2024/04/24 08:04:18;;;;;;;3.22;1.40;;;;;;;;;;5460636;26;20231;-38
2024/04/24 08:06:44;;;;;;;3.08;1.33;;;;;;;;;;5449423;26;20278;-38
2024/04/24 08:09:10;;;;;;;2.45;1.50;;;;;;;;;;5443678;26;20606;-38
2024/04/24 08:11:36;;;;;;;1.77;1.63;;;;;;;;;;5449572;26;20345;-38
2024/04/24 08:14:03;;;;;;;1.55;1.42;;;;;;;;;;5450802;26;20235;-38
2024/04/24 08:16:29;;;;;;;2.80;1.45;;;;;;;;;;5452468;26;20284;-38
2024/04/24 08:18:55;;;;;;;1.77;1.23;;;;;;;;;;5452866;26;20299;-38
2024/04/24 08:21:21;;;;;;;2.47;1.42;;;;;;;;;;5450770;26;20300;-38
2024/04/24 08:23:47;;;;;;;1.42;1.33;;;;;;;;;;5445132;26;20236;-37
2024/04/24 08:26:13;;;;;;;2.03;1.60;;;;;;;;;;5434119;26;20235;-38
2024/04/24 08:28:41;;;;;;;1.40;1.30;;;;;;;;;;5449864;26;20282;-37
2024/04/24 08:31:07;;;;;;;1.30;1.20;;;;;;;;;;5440099;26;20324;-37
2024/04/24 08:33:33;;;;;;;1.42;1.30;;;;;;;;;;5451101;26;20227;-38
2024/04/24 08:36:03;;;;;;;1.75;1.38;;;;;;;;;;5452845;26;20235;-38
2024/04/24 08:38:29;;;;;;;1.75;1.55;;;;;;;;;;5452145;26;20687;-38
2024/04/24 08:41:03;;;;;;;1.40;1.30;;;;;;;;;;5438716;26;20322;-38
2024/04/24 08:43:29;;;;;;;2.30;1.50;;;;;;;;;;5442379;26;20270;-38
2024/04/24 08:45:59;;;;;;;1.80;1.50;;;;;;;;;;5445859;26;20547;-38
2024/04/24 08:48:25;;;;;;;2.90;1.30;;;;;;;;;;5447226;26;20493;-38
2024/04/24 08:50:52;;;;;;;1.33;1.23;;;;;;;;;;5450940;26;20239;-38
2024/04/24 08:53:19;;;;;;;1.88;1.58;;;;;;;;;;5445713;26;20777;-38
2024/04/24 08:55:46;;;;;;;1.70;1.60;;;;;;;;;;5434323;26;20236;-38
2024/04/24 08:58:13;;;;;;;1.80;1.50;;;;;;;;;;5434148;26;20221;-38
2024/04/24 09:00:40;;;;;;;2.28;1.40;;;;;;;;;;5447441;26;20332;-38
2024/04/24 09:03:11;;;;;;;2.17;1.48;;;;;;;;;;5448663;26;20595;-38
2024/04/24 09:05:37;;;;;;;1.70;1.30;;;;;;;;;;5455168;26;20269;-38
2024/04/24 09:08:03;;;;;;;2.13;1.38;;;;;;;;;;5455491;26;20223;-38
2024/04/24 09:10:29;;;;;;;1.40;1.30;;;;;;;;;;5457104;26;20324;-38
2024/04/24 09:12:55;;;;;;;1.38;1.27;;;;;;;;;;5456595;26;20227;-38
2024/04/24 09:15:22;;;;;;;1.27;1.17;;;;;;;;;;5439009;26;20224;-38
2024/04/24 09:17:49;;;;;;;1.20;1.05;;;;;;;;;;5445785;26;20290;-38
2024/04/24 09:20:15;;;;;;;1.27;1.20;;;;;;;;;;5435185;26;20298;-38
2024/04/24 09:22:41;;;;;;;1.50;1.40;;;;;;;;;;5432719;26;20243;-38
2024/04/24 09:25:07;;;;;;;1.30;1.20;;;;;;;;;;5434990;26;20231;-38
2024/04/24 09:27:34;;;;;;;1.25;1.15;;;;;;;;;;5434407;26;22828;-38
2024/04/24 09:30:00;;;;;;;2.22;1.17;;;;;;;;;;5439045;26;20309;-38
2024/04/24 09:32:25;;;;;;;1.38;1.25;;;;;;;;;;5449438;26;20235;-38
2024/04/24 09:34:51;;;;;;;1.58;1.48;;;;;;;;;;5453097;26;20294;-38
2024/04/24 09:37:17;;;;;;;2.15;1.38;;;;;;;;;;5423915;26;20450;-38
2024/04/24 09:39:44;;;;;;;1.40;1.30;;;;;;;;;;5446612;26;20633;-38
2024/04/24 09:42:10;;;;;;;2.45;1.40;;;;;;;;;;5441299;26;20295;-38
2024/04/24 09:44:46;;;;;;;1.67;1.30;;;;;;;;;;5443840;26;20318;-38
2024/04/24 09:47:12;;;;;;;1.30;1.20;;;;;;;;;;5439031;26;20292;-38
2024/04/24 09:49:38;;;;;;;1.70;1.60;;;;;;;;;;5450169;26;20239;-38
2024/04/24 09:52:04;;;;;;;1.58;1.42;;;;;;;;;;5440597;26;20478;-38
2024/04/24 09:54:30;;;;;;;2.22;1.55;;;;;;;;;;5452246;26;20923;-38
2024/04/24 09:56:57;;;;;;;2.13;1.30;;;;;;;;;;5450768;26;20232;-38
2024/04/24 09:59:28;;;;;;;2.13;1.58;;;;;;;;;;5448869;26;20282;-38
2024/04/24 10:01:54;;;;;;;1.33;1.20;;;;;;;;;;5442747;26;20337;-38
2024/04/24 10:04:20;;;;;;;1.45;1.35;;;;;;;;;;5456282;26;20225;-37
2024/04/24 10:06:46;;;;;;;1.40;1.30;;;;;;;;;;5444832;26;20662;-37
2024/04/24 10:09:16;;;;;;;1.38;1.23;;;;;;;;;;5436239;26;20658;-37
2024/04/24 10:11:44;;;;;;;2.20;1.35;;;;;;;;;;5441459;26;20231;-37
2024/04/24 10:14:12;;;;;;;1.77;1.48;;;;;;;;;;5449154;26;20282;-37
2024/04/24 10:16:38;;;;;;;2.08;1.52;;;;;;;;;;5454429;26;20227;-37
2024/04/24 10:19:05;;;;;;;1.20;1.10;;;;;;;;;;5453862;26;20281;-37
2024/04/24 10:21:31;;;;;;;2.10;1.48;;;;;;;;;;5453161;26;20243;-37
2024/04/24 10:23:57;;;;;;;1.77;1.45;;;;;;;;;;5442687;26;20597;-39
2024/04/24 10:26:25;;;;;;;2.55;1.35;;;;;;;;;;5445959;26;20239;-39
2024/04/24 10:28:51;;;;;;;2.13;1.52;;;;;;;;;;5450339;26;20231;-39
2024/04/24 10:31:17;;;;;;;1.98;1.33;;;;;;;;;;5449550;26;20231;-38
2024/04/24 10:33:43;;;;;;;1.67;1.40;;;;;;;;;;5441298;26;20227;-38
2024/04/24 10:36:09;;;;;;;2.42;1.52;;;;;;;;;;5455695;26;20225;-39
2024/04/24 10:38:35;;;;;;;2.25;1.63;;;;;;;;;;5444070;26;20506;-38
2024/04/24 10:41:02;;;;;;;1.65;1.40;;;;;;;;;;5439962;26;20235;-39
2024/04/24 10:43:33;;;;;;;1.88;1.38;;;;;;;;;;5442687;26;20224;-39
2024/04/24 10:46:00;;;;;;;1.45;1.35;;;;;;;;;;5441190;26;20248;-39
2024/04/24 10:48:40;;;;;;;1.83;1.50;;;;;;;;;;5453933;26;20231;-39
2024/04/24 10:51:05;;;;;;;1.88;1.38;;;;;;;;;;5453991;26;20332;-39
2024/04/24 10:53:31;;;;;;;1.63;1.48;;;;;;;;;;5453981;26;20244;-39
2024/04/24 10:56:02;;;;;;;2.17;1.48;;;;;;;;;;5447127;26;20813;-39
2024/04/24 10:58:28;;;;;;;1.48;1.35;;;;;;;;;;5447929;26;20534;-39
2024/04/24 11:00:54;;;;;;;2.20;1.50;;;;;;;;;;5436778;26;20309;-39
2024/04/24 11:03:24;;;;;;;2.22;1.55;;;;;;;;;;5454414;26;20226;-39
2024/04/24 11:05:50;;;;;;;2.35;1.60;;;;;;;;;;5451417;26;20274;-39
2024/04/24 11:08:16;;;;;;;2.15;1.60;;;;;;;;;;5454487;26;20235;-38
2024/04/24 11:10:49;;;;;;;2.15;1.70;;;;;;;;;;5453855;26;20235;-39
2024/04/24 11:13:15;;;;;;;1.65;1.55;;;;;;;;;;5435967;26;20239;-39
2024/04/24 11:15:41;;;;;;;2.60;1.85;;;;;;;;;;5443896;26;20518;-39
2024/04/24 11:18:07;;;;;;;2.13;1.55;;;;;;;;;;5434564;26;20308;-39
2024/04/24 11:20:37;;;;;;;1.63;1.50;;;;;;;;;;5437528;26;20235;-39
2024/04/24 11:23:10;;;;;;;1.75;1.30;;;;;;;;;;5446370;26;20231;-39
2024/04/24 11:25:37;;;;;;;1.85;1.67;;;;;;;;;;5442939;26;20235;-39
2024/04/24 11:28:03;;;;;;;2.28;1.50;;;;;;;;;;5434063;26;20549;-39
2024/04/24 11:30:29;;;;;;;1.77;1.33;;;;;;;;;;5449214;26;20298;-39
2024/04/24 11:32:55;;;;;;;1.77;1.48;;;;;;;;;;5450402;26;20231;-39
2024/04/24 11:35:22;;;;;;;2.03;1.58;;;;;;;;;;5455100;26;20309;-39
2024/04/24 11:37:49;;;;;;;4.15;1.67;;;;;;;;;;5451676;26;20615;-38
2024/04/24 11:40:15;;;;;;;2.50;1.58;;;;;;;;;;5455245;26;20223;-39
2024/04/24 11:42:51;;;;;;;2.38;1.73;;;;;;;;;;5451246;26;20488;-39
2024/04/24 11:45:16;;;;;;;2.63;1.52;;;;;;;;;;5453298;26;20291;-39
2024/04/24 11:47:47;;;;;;;3.30;1.80;;;;;;;;;;5447712;26;20235;-39
2024/04/24 11:50:13;;;;;;;2.58;1.48;;;;;;;;;;5453268;26;20290;-39
2024/04/24 11:52:42;;;;;;;3.20;1.70;;;;;;;;;;5451931;26;20642;-39
2024/04/24 11:55:08;;;;;;;2.83;1.60;;;;;;;;;;5453568;26;20273;-39
2024/04/24 11:57:34;;;;;;;1.77;1.30;;;;;;;;;;5445924;26;20231;-39
2024/04/24 12:00:01;;;;;;;2.67;2.00;;;;;;;;;;5450598;26;20295;-39
2024/04/24 12:02:27;;;;;;;1.80;1.40;;;;;;;;;;5444480;26;20273;-39
2024/04/24 12:04:53;;;;;;;1.85;1.40;;;;;;;;;;5450786;26;20235;-39
2024/04/24 12:07:18;;;;;;;1.73;1.40;;;;;;;;;;5455423;26;20292;-39
2024/04/24 12:09:44;;;;;;;2.55;1.65;;;;;;;;;;5452848;26;20231;-39
2024/04/24 12:12:10;;;;;;;2.58;1.60;;;;;;;;;;5442885;26;20220;-39
2024/04/24 12:14:40;;;;;;;3.03;1.55;;;;;;;;;;5440900;26;20285;-39
2024/04/24 12:17:06;;;;;;;2.30;1.55;;;;;;;;;;5451651;26;20231;-38
2024/04/24 12:19:33;;;;;;;2.47;1.30;;;;;;;;;;5448659;26;20278;-37
2024/04/24 12:22:00;;;;;;;2.00;1.50;;;;;;;;;;5434898;26;20270;-37
2024/04/24 12:24:28;;;;;;;2.00;1.40;;;;;;;;;;5448067;26;20231;-37
2024/04/24 12:26:54;;;;;;;2.53;1.67;;;;;;;;;;5449077;26;20287;-37
2024/04/24 12:29:20;;;;;;;2.75;1.40;;;;;;;;;;5440140;26;20232;-38
2024/04/24 12:31:46;;;;;;;2.08;1.67;;;;;;;;;;5450913;26;20223;-37
2024/04/24 12:34:12;;;;;;;2.00;1.58;;;;;;;;;;5445924;26;20288;-37
2024/04/24 12:36:38;;;;;;;1.90;1.67;;;;;;;;;;5431926;26;20228;-37
2024/04/24 12:39:11;;;;;;;1.45;1.30;;;;;;;;;;5441149;26;20232;-37
2024/04/24 12:41:37;;;;;;;1.75;1.40;;;;;;;;;;5447652;26;20239;-38
2024/04/24 12:44:03;;;;;;;1.85;1.25;;;;;;;;;;5455896;26;20305;-37
2024/04/24 12:46:29;;;;;;;1.50;1.30;;;;;;;;;;5450677;26;20243;-38
2024/04/24 12:48:55;;;;;;;2.85;1.60;;;;;;;;;;5457525;26;20568;-38
2024/04/24 12:51:24;;;;;;;2.35;1.63;;;;;;;;;;5450043;26;20235;-38
2024/04/24 12:53:51;;;;;;;2.40;1.50;;;;;;;;;;5450431;26;20228;-38
2024/04/24 12:56:17;;;;;;;3.25;1.58;;;;;;;;;;5451388;26;20312;-37
2024/04/24 12:58:42;;;;;;;2.47;1.52;;;;;;;;;;5449141;26;20230;-38
2024/04/24 13:01:16;;;;;;;1.90;1.35;;;;;;;;;;5451804;26;20375;-38
2024/04/24 13:03:42;;;;;;;2.75;1.80;;;;;;;;;;5447672;26;20357;-38
2024/04/24 13:06:08;;;;;;;1.35;1.20;;;;;;;;;;5448085;26;20590;-37
2024/04/24 13:08:34;;;;;;;1.48;1.38;;;;;;;;;;5441451;26;20275;-37
2024/04/24 13:11:00;;;;;;;2.60;1.63;;;;;;;;;;5445246;26;20311;-37
2024/04/24 13:13:26;;;;;;;3.13;2.00;;;;;;;;;;5442577;26;20227;-38
2024/04/24 13:15:52;;;;;;;3.20;1.95;;;;;;;;;;5432950;26;20229;-38
2024/04/24 13:18:18;;;;;;;2.15;1.52;;;;;;;;;;5439450;26;20606;-37
2024/04/24 13:20:43;;;;;;;3.72;1.52;;;;;;;;;;5438920;26;20262;-38
2024/04/24 13:23:09;;;;;;;2.25;1.63;;;;;;;;;;5424352;26;20240;-38
2024/04/24 13:25:35;;;;;;;3.85;2.25;;;;;;;;;;5447113;26;20487;-37
2024/04/24 13:28:03;;;;;;;2.00;1.30;;;;;;;;;;5450904;26;20295;-38
2024/04/24 13:30:29;;;;;;;5.53;1.77;;;;;;;;;;5433439;26;20296;-38
2024/04/24 13:32:55;;;;;;;2.85;1.80;;;;;;;;;;5428896;26;20262;-38
2024/04/24 13:35:21;;;;;;;4.60;2.10;;;;;;;;;;5449337;26;20227;-38
2024/04/24 13:37:47;;;;;;;3.47;1.58;;;;;;;;;;5441259;26;20240;-38
2024/04/24 13:40:13;;;;;;;2.92;1.40;;;;;;;;;;5451609;26;20228;-38
2024/04/24 13:42:39;;;;;;;2.55;1.40;;;;;;;;;;5429758;26;20354;-38
2024/04/24 13:45:05;;;;;;;2.60;1.45;;;;;;;;;;5440419;26;20251;-38
2024/04/24 13:47:31;;;;;;;4.75;1.70;;;;;;;;;;5436914;26;20517;-38
2024/04/24 13:49:57;;;;;;;3.20;1.33;;;;;;;;;;5446806;26;20243;-38
2024/04/24 13:52:23;;;;;;;2.90;1.60;;;;;;;;;;5435003;26;20227;-38
2024/04/24 13:54:49;;;;;;;3.35;1.52;;;;;;;;;;5444752;26;20287;-38
2024/04/24 13:57:15;;;;;;;2.28;1.40;;;;;;;;;;5447092;26;20224;-37
2024/04/24 13:59:40;;;;;;;3.10;1.92;;;;;;;;;;5441783;26;20232;-38
2024/04/24 14:02:06;;;;;;;2.08;1.65;;;;;;;;;;5435190;26;20294;-38
2024/04/24 14:04:32;;;;;;;2.35;1.75;;;;;;;;;;5435094;26;20228;-37
2024/04/24 14:06:58;;;;;;;1.73;1.35;;;;;;;;;;5437493;26;20287;-37
2024/04/24 14:09:25;;;;;;;2.10;1.40;;;;;;;;;;5430614;26;20241;-37
2024/04/24 14:11:52;;;;;;;3.20;1.10;;;;;;;;;;5448119;26;20235;-37
2024/04/24 14:14:19;;;;;;;1.40;1.20;;;;;;;;;;5434441;26;20234;-37
2024/04/24 14:16:45;;;;;;;2.38;1.27;;;;;;;;;;5438148;26;20236;-37
2024/04/24 14:19:11;;;;;;;1.25;1.02;;;;;;;;;;5449829;26;20227;-37
2024/04/24 14:21:37;;;;;;;1.63;1.20;;;;;;;;;;5436874;26;20241;-37
2024/04/24 14:24:03;;;;;;;1.50;1.40;;;;;;;;;;5448919;26;20634;-37
2024/04/24 14:26:29;;;;;;;2.67;1.48;;;;;;;;;;5436552;26;20244;-37
2024/04/24 14:28:55;;;;;;;2.13;1.50;;;;;;;;;;5433413;26;20645;-37
2024/04/24 14:31:21;;;;;;;1.60;1.10;;;;;;;;;;5430682;26;20286;-37
2024/04/24 14:33:48;;;;;;;1.80;1.38;;;;;;;;;;5440113;26;20236;-37
2024/04/24 14:36:14;;;;;;;3.38;1.20;;;;;;;;;;5434824;26;20227;-37
2024/04/24 14:38:42;;;;;;;1.80;1.40;;;;;;;;;;5434589;26;20618;-38
2024/04/24 14:41:12;;;;;;;1.73;1.33;;;;;;;;;;5441085;26;20312;-38
2024/04/24 14:43:38;;;;;;;1.55;1.45;;;;;;;;;;5439496;26;20334;-38